createdAt,value
2022-09-23T00:01:07.461Z,101586.16
2022-09-23T00:03:35.205Z,101590.16
2022-09-23T00:06:11.747Z,101576.81
2022-09-23T00:08:39.881Z,101576.56
2022-09-23T00:11:14.840Z,101575.06
2022-09-23T00:13:46.226Z,101567.13
2022-09-23T00:16:15.565Z,101566.53
2022-09-23T00:18:42.749Z,101568.91
2022-09-23T00:21:12.171Z,101565.84
2022-09-23T00:23:40.588Z,101564.38
2022-09-23T00:26:08.670Z,101562.81
2022-09-23T00:28:35.846Z,101558.09
2022-09-23T00:31:08.417Z,101562.84
2022-09-23T00:33:35.003Z,101559.03
2022-09-23T00:36:03.061Z,101558.63
2022-09-23T00:38:29.794Z,101565.63
2022-09-23T00:40:57.031Z,101550.56
2022-09-23T00:43:37.739Z,101553.16
2022-09-23T00:46:06.363Z,101544.53
2022-09-23T00:48:32.929Z,101548.16
2022-09-23T00:50:59.448Z,101545.00
2022-09-23T00:53:29.030Z,101542.50
2022-09-23T00:55:59.267Z,101539.66
2022-09-23T00:58:31.154Z,101541.53
2022-09-23T01:01:00.401Z,101534.97
2022-09-23T01:03:27.229Z,101539.84
2022-09-23T01:05:54.267Z,101529.13
2022-09-23T01:08:22.090Z,101538.41
2022-09-23T01:11:14.909Z,101526.09
2022-09-23T01:14:16.212Z,101519.78
2022-09-23T01:16:58.764Z,101528.66
2022-09-23T01:19:43.603Z,101516.16
2022-09-23T01:22:27.934Z,101521.56
2022-09-23T01:25:32.043Z,101518.25
2022-09-23T01:28:29.153Z,101512.81
2022-09-23T01:31:06.067Z,101504.38
2022-09-23T01:34:01.559Z,101510.31
2022-09-23T01:36:39.749Z,101502.63
2022-09-23T01:39:24.024Z,101502.03
2022-09-23T01:41:59.930Z,101507.28
2022-09-23T01:44:47.555Z,101503.53
2022-09-23T01:47:22.763Z,101498.78
2022-09-23T01:49:55.014Z,101494.13
2022-09-23T01:52:32.744Z,101489.84
2022-09-23T01:55:23.442Z,101486.84
2022-09-23T01:57:55.455Z,101492.56
2022-09-23T02:00:24.471Z,101489.28
2022-09-23T02:02:59.337Z,101475.16
2022-09-23T02:05:26.075Z,101478.59
2022-09-23T02:08:01.314Z,101476.47
2022-09-23T02:10:37.472Z,101479.47
2022-09-23T02:13:15.774Z,101469.72
2022-09-23T02:15:49.154Z,101469.09
2022-09-23T02:18:30.086Z,101468.34
2022-09-23T02:21:02.936Z,101470.41
2022-09-23T02:23:44.105Z,101465.69
2022-09-23T02:26:38.107Z,101460.13
2022-09-23T02:29:21.941Z,101454.78
2022-09-23T02:32:02.017Z,101450.38
2022-09-23T02:34:47.451Z,101456.13
2022-09-23T02:37:39.376Z,101449.38
2022-09-23T02:40:19.946Z,101446.72
2022-09-23T02:43:05.701Z,101441.69
2022-09-23T02:45:33.734Z,101444.59
2022-09-23T02:48:35.961Z,101438.19
2022-09-23T02:51:03.720Z,101440.81
2022-09-23T02:53:33.881Z,101437.59
2022-09-23T02:56:01.774Z,101442.03
2022-09-23T02:58:30.051Z,101439.03
2022-09-23T03:00:56.908Z,101427.63
2022-09-23T03:03:53.889Z,101434.09
2022-09-23T03:06:26.853Z,101434.69
2022-09-23T03:09:00.333Z,101425.66
2022-09-23T03:11:27.686Z,101419.09
2022-09-23T03:14:00.125Z,101423.41
2022-09-23T03:16:38.870Z,101422.06
2022-09-23T03:19:18.429Z,101415.25
2022-09-23T03:21:52.965Z,101412.47
2022-09-23T03:24:21.788Z,101418.63
2022-09-23T03:26:50.254Z,101415.41
2022-09-23T03:29:19.317Z,101410.03
2022-09-23T03:31:46.576Z,101405.47
2022-09-23T03:34:22.684Z,101396.53
2022-09-23T03:37:07.530Z,101403.50
2022-09-23T03:39:36.705Z,101409.22
2022-09-23T03:42:28.114Z,101396.00
2022-09-23T03:45:00.410Z,101398.72
2022-09-23T03:47:28.522Z,101396.00
2022-09-23T03:49:56.756Z,101394.53
2022-09-23T03:52:24.799Z,101391.06
2022-09-23T03:54:52.232Z,101395.25
2022-09-23T03:57:22.061Z,101389.66
2022-09-23T03:59:50.546Z,101385.34
2022-09-23T04:02:18.729Z,101382.25
2022-09-23T04:04:47.114Z,101384.88
2022-09-23T04:07:14.555Z,101377.19
2022-09-23T04:09:41.312Z,101372.84
2022-09-23T04:12:08.386Z,101370.28
2022-09-23T04:14:35.508Z,101371.31
2022-09-23T04:17:02.768Z,101369.28
2022-09-23T04:19:29.317Z,101366.13
2022-09-23T04:21:55.848Z,101355.78
2022-09-23T04:24:22.549Z,101361.22
2022-09-23T04:26:53.851Z,101361.69
2022-09-23T04:29:21.262Z,101353.03
2022-09-23T04:31:47.954Z,101352.69
2022-09-23T04:34:17.402Z,101350.72
2022-09-23T04:36:45.300Z,101358.53
2022-09-23T04:39:13.036Z,101349.94
2022-09-23T04:41:39.521Z,101352.66
2022-09-23T04:44:06.233Z,101348.69
2022-09-23T04:46:34.189Z,101348.03
2022-09-23T04:49:00.884Z,101346.81
2022-09-23T04:51:28.424Z,101348.81
2022-09-23T04:53:55.679Z,101340.91
2022-09-23T04:56:25.113Z,101346.19
2022-09-23T04:58:52.333Z,101349.28
2022-09-23T05:01:27.246Z,101340.44
2022-09-23T05:04:02.341Z,101333.91
2022-09-23T05:06:31.468Z,101335.91
2022-09-23T05:08:59.221Z,101339.03
2022-09-23T05:11:27.233Z,101338.34
2022-09-23T05:13:54.650Z,101338.31
2022-09-23T05:16:23.209Z,101345.38
2022-09-23T05:18:51.450Z,101343.31
2022-09-23T05:21:21.060Z,101344.28
2022-09-23T05:23:49.638Z,101343.56
2022-09-23T05:26:16.462Z,101345.59
2022-09-23T05:28:42.949Z,101340.75
2022-09-23T05:31:19.356Z,101339.56
2022-09-23T05:33:58.525Z,101336.53
2022-09-23T05:36:26.440Z,101331.97
2022-09-23T05:38:53.206Z,101327.19
2022-09-23T05:41:23.133Z,101332.31
2022-09-23T05:43:51.637Z,101332.88
2022-09-23T05:46:20.909Z,101335.06
2022-09-23T05:48:47.618Z,101324.63
2022-09-23T05:51:20.074Z,101332.59
2022-09-23T05:53:47.682Z,101333.03
2022-09-23T05:56:18.492Z,101343.56
2022-09-23T05:58:45.196Z,101336.06
2022-09-23T06:01:13.790Z,101328.41
2022-09-23T06:03:41.547Z,101331.94
2022-09-23T06:06:14.515Z,101329.59
2022-09-23T06:08:42.243Z,101332.16
2022-09-23T06:11:09.211Z,101333.03
2022-09-23T06:13:39.403Z,101329.16
2022-09-23T06:16:08.128Z,101328.63
2022-09-23T06:18:35.868Z,101333.84
2022-09-23T06:21:03.571Z,101331.88
2022-09-23T06:23:30.929Z,101323.31
2022-09-23T06:26:05.929Z,101334.44
2022-09-23T06:28:34.361Z,101329.81
2022-09-23T06:31:03.795Z,101336.53
2022-09-23T06:33:36.842Z,101332.91
2022-09-23T06:36:06.230Z,101327.75
2022-09-23T06:38:34.235Z,101327.13
2022-09-23T06:41:01.978Z,101326.53
2022-09-23T06:43:31.838Z,101328.34
2022-09-23T06:46:00.169Z,101330.63
2022-09-23T06:48:28.160Z,101324.16
2022-09-23T06:50:58.539Z,101330.88
2022-09-23T06:53:25.522Z,101322.59
2022-09-23T06:56:00.371Z,101328.88
2022-09-23T06:58:31.631Z,101328.75
2022-09-23T07:01:07.126Z,101330.84
2022-09-23T07:03:35.047Z,101319.47
2022-09-23T07:06:02.281Z,101329.44
2022-09-23T07:08:30.526Z,101325.19
2022-09-23T07:10:59.400Z,101330.94
2022-09-23T07:13:27.445Z,101323.69
2022-09-23T07:15:58.310Z,101321.22
2022-09-23T07:18:26.917Z,101326.91
2022-09-23T07:20:58.003Z,101322.00
2022-09-23T07:23:25.845Z,101321.72
2022-09-23T07:25:52.652Z,101322.63
2022-09-23T07:28:20.095Z,101319.97
2022-09-23T07:30:58.608Z,101327.69
2022-09-23T07:33:33.236Z,101325.63
2022-09-23T07:36:05.435Z,101332.91
2022-09-23T07:38:32.066Z,101328.50
2022-09-23T07:41:08.071Z,101329.44
2022-09-23T07:43:37.315Z,101330.06
2022-09-23T07:46:08.259Z,101332.66
2022-09-23T07:48:35.979Z,101328.31
2022-09-23T07:51:10.782Z,101324.84
2022-09-23T07:53:37.518Z,101329.50
2022-09-23T07:56:06.491Z,101321.75
2022-09-23T07:58:34.428Z,101319.94
2022-09-23T08:01:06.463Z,101323.63
2022-09-23T08:03:33.470Z,101328.84
2022-09-23T08:06:12.364Z,101335.31
2022-09-23T08:08:43.333Z,101335.03
2022-09-23T08:11:12.230Z,101324.19
2022-09-23T08:13:38.807Z,101327.97
2022-09-23T08:16:06.734Z,101324.38
2022-09-23T08:18:33.512Z,101324.88
2022-09-23T08:21:00.384Z,101317.06
2022-09-23T08:23:27.691Z,101330.00
2022-09-23T08:26:00.787Z,101321.63
2022-09-23T08:28:28.225Z,101316.19
2022-09-23T08:30:55.370Z,101320.44
2022-09-23T08:33:23.783Z,101316.31
2022-09-23T08:35:51.420Z,101322.34
2022-09-23T08:38:18.107Z,101314.31
2022-09-23T08:40:49.503Z,101315.44
2022-09-23T08:43:26.535Z,101314.09
2022-09-23T08:45:55.693Z,101316.00
2022-09-23T08:48:36.803Z,101306.03
2022-09-23T08:51:11.969Z,101307.28
2022-09-23T08:53:38.766Z,101307.34
2022-09-23T08:56:11.186Z,101299.41
2022-09-23T08:59:13.476Z,101300.50
2022-09-23T09:01:46.184Z,101297.81
2022-09-23T09:04:22.932Z,101298.59
2022-09-23T09:07:12.365Z,101294.81
2022-09-23T09:09:55.072Z,101292.41
2022-09-23T09:12:50.814Z,101298.31
2022-09-23T09:15:27.986Z,101284.06
2022-09-23T09:18:16.304Z,101291.00
2022-09-23T09:21:11.675Z,101282.19
2022-09-23T09:23:57.351Z,101286.94
2022-09-23T09:26:27.191Z,101278.56
2022-09-23T09:29:31.257Z,101279.53
2022-09-23T09:31:57.682Z,101273.28
2022-09-23T09:34:33.063Z,101285.34
2022-09-23T09:37:09.932Z,101280.13
2022-09-23T09:39:36.781Z,101276.38
2022-09-23T09:42:08.818Z,101277.13
2022-09-23T09:44:50.495Z,101275.09
2022-09-23T09:47:46.710Z,101270.22
2022-09-23T09:50:34.802Z,101261.28
2022-09-23T09:53:16.602Z,101266.75
2022-09-23T09:55:43.142Z,101260.19
2022-09-23T09:58:16.404Z,101256.50
2022-09-23T10:00:45.633Z,101245.00
2022-09-23T10:03:14.944Z,101246.00
2022-09-23T10:05:45.029Z,101250.44
2022-09-23T10:08:32.267Z,101246.34
2022-09-23T10:10:58.717Z,101247.38
2022-09-23T10:13:27.287Z,101239.94
2022-09-23T10:15:54.846Z,101237.84
2022-09-23T10:18:47.196Z,101240.53
2022-09-23T10:21:17.655Z,101227.19
2022-09-23T10:23:50.086Z,101242.66
2022-09-23T10:26:18.532Z,101223.28
2022-09-23T10:28:51.293Z,101221.38
2022-09-23T10:31:32.663Z,101219.19
2022-09-23T10:34:00.471Z,101220.88
2022-09-23T10:36:29.826Z,101217.44
2022-09-23T10:39:18.924Z,101222.53
2022-09-23T10:42:40.322Z,101224.66
2022-09-23T10:45:39.783Z,101228.16
2022-09-23T10:48:21.704Z,101230.34
2022-09-23T10:50:51.949Z,101220.84
2022-09-23T10:53:47.522Z,101226.94
2022-09-23T10:56:35.358Z,101228.69
2022-09-23T10:59:44.855Z,101225.38
2022-09-23T11:02:31.797Z,101225.44
